sensor_id;sensor_type;location;lat;lon;timestamp;P1;durP1;ratioP1;P2;durP2;ratioP2
75342;SDS011;63936;51.006;13.764;2023-05-07T00:00:04;14;;;9;;
75342;SDS011;63936;51.006;13.764;2023-05-07T00:02:04;15;;;10;;
75342;SDS011;63936;51.006;13.764;2023-05-07T00:04:03;19;;;10;;
75342;SDS011;63936;51.006;13.764;2023-05-07T00:06:03;19;;;11;;
75342;SDS011;63936;51.006;13.764;2023-05-07T00:08:03;16;;;10;;
75342;SDS011;63936;51.006;13.764;2023-05-07T00:10:05;16;;;11;;
75342;SDS011;63936;51.006;13.764;2023-05-07T00:12:02;17;;;12;;
75342;SDS011;63936;51.006;13.764;2023-05-07T00:14:02;16;;;11;;
75342;SDS011;63936;51.006;13.764;2023-05-07T00:16:04;17;;;10;;
75342;SDS011;63936;51.006;13.764;2023-05-07T00:18:02;17;;;10;;
75342;SDS011;63936;51.006;13.764;2023-05-07T00:20:11;16;;;11;;
75342;SDS011;63936;51.006;13.764;2023-05-07T00:22:01;16;;;12;;
75342;SDS011;63936;51.006;13.764;2023-05-07T00:24:03;21;;;12;;
75342;SDS011;63936;51.006;13.764;2023-05-07T00:26:02;21;;;13;;
75342;SDS011;63936;51.006;13.764;2023-05-07T00:28:02;15;;;10;;
75342;SDS011;63936;51.006;13.764;2023-05-07T00:30:02;15;;;11;;
75342;SDS011;63936;51.006;13.764;2023-05-07T00:32:01;14;;;8;;
75342;SDS011;63936;51.006;13.764;2023-05-07T00:34:01;14;;;8;;
75342;SDS011;63936;51.006;13.764;2023-05-07T00:36:01;15;;;9;;
75342;SDS011;63936;51.006;13.764;2023-05-07T00:38:02;15;;;10;;
75342;SDS011;63936;51.006;13.764;2023-05-07T00:40:05;15;;;10;;
75342;SDS011;63936;51.006;13.764;2023-05-07T00:42:02;15;;;10;;
75342;SDS011;63936;51.006;13.764;2023-05-07T00:44:03;16;;;10;;
75342;SDS011;63936;51.006;13.764;2023-05-07T00:46:01;16;;;10;;
75342;SDS011;63936;51.006;13.764;2023-05-07T00:48:02;16;;;9;;
75342;SDS011;63936;51.006;13.764;2023-05-07T00:50:03;16;;;11;;
75342;SDS011;63936;51.006;13.764;2023-05-07T00:52:02;15;;;10;;
75342;SDS011;63936;51.006;13.764;2023-05-07T00:54:01;15;;;9;;
75342;SDS011;63936;51.006;13.764;2023-05-07T00:56:01;16;;;10;;
75342;SDS011;63936;51.006;13.764;2023-05-07T00:58:01;16;;;10;;
75342;SDS011;63936;51.006;13.764;2023-05-07T01:00:03;16;;;9;;
75342;SDS011;63936;51.006;13.764;2023-05-07T01:02:01;16;;;10;;
75342;SDS011;63936;51.006;13.764;2023-05-07T01:04:01;16;;;11;;
75342;SDS011;63936;51.006;13.764;2023-05-07T01:06:02;17;;;12;;
75342;SDS011;63936;51.006;13.764;2023-05-07T01:08:01;17;;;10;;
75342;SDS011;63936;51.006;13.764;2023-05-07T01:10:03;17;;;12;;
75342;SDS011;63936;51.006;13.764;2023-05-07T01:12:01;18;;;11;;
75342;SDS011;63936;51.006;13.764;2023-05-07T01:14:01;19;;;12;;
75342;SDS011;63936;51.006;13.764;2023-05-07T01:16:01;18;;;11;;
75342;SDS011;63936;51.006;13.764;2023-05-07T01:18:01;18;;;12;;
75342;SDS011;63936;51.006;13.764;2023-05-07T01:20:03;20;;;13;;
75342;SDS011;63936;51.006;13.764;2023-05-07T01:22:02;19;;;12;;
75342;SDS011;63936;51.006;13.764;2023-05-07T01:24:01;17;;;10;;
75342;SDS011;63936;51.006;13.764;2023-05-07T01:26:01;18;;;12;;
75342;SDS011;63936;51.006;13.764;2023-05-07T01:28:01;21;;;12;;
75342;SDS011;63936;51.006;13.764;2023-05-07T01:30:03;20;;;12;;
75342;SDS011;63936;51.006;13.764;2023-05-07T01:32:02;19;;;11;;
75342;SDS011;63936;51.006;13.764;2023-05-07T01:34:02;20;;;12;;
75342;SDS011;63936;51.006;13.764;2023-05-07T01:36:01;19;;;10;;
75342;SDS011;63936;51.006;13.764;2023-05-07T01:38:01;18;;;11;;
75342;SDS011;63936;51.006;13.764;2023-05-07T01:40:03;18;;;12;;
75342;SDS011;63936;51.006;13.764;2023-05-07T01:42:02;19;;;12;;
75342;SDS011;63936;51.006;13.764;2023-05-07T01:44:02;19;;;11;;
75342;SDS011;63936;51.006;13.764;2023-05-07T01:46:01;19;;;12;;
75342;SDS011;63936;51.006;13.764;2023-05-07T01:48:01;19;;;11;;
75342;SDS011;63936;51.006;13.764;2023-05-07T01:50:02;18;;;11;;
75342;SDS011;63936;51.006;13.764;2023-05-07T01:52:01;17;;;10;;
75342;SDS011;63936;51.006;13.764;2023-05-07T01:54:01;18;;;11;;
75342;SDS011;63936;51.006;13.764;2023-05-07T01:56:01;19;;;13;;
75342;SDS011;63936;51.006;13.764;2023-05-07T01:58:01;19;;;13;;
75342;SDS011;63936;51.006;13.764;2023-05-07T02:00:03;18;;;11;;
75342;SDS011;63936;51.006;13.764;2023-05-07T02:02:02;19;;;12;;
75342;SDS011;63936;51.006;13.764;2023-05-07T02:04:02;18;;;11;;
75342;SDS011;63936;51.006;13.764;2023-05-07T02:06:01;19;;;12;;
75342;SDS011;63936;51.006;13.764;2023-05-07T02:08:01;17;;;11;;
75342;SDS011;63936;51.006;13.764;2023-05-07T02:10:03;17;;;12;;
75342;SDS011;63936;51.006;13.764;2023-05-07T02:12:02;18;;;11;;
75342;SDS011;63936;51.006;13.764;2023-05-07T02:14:02;18;;;10;;
75342;SDS011;63936;51.006;13.764;2023-05-07T02:16:01;17;;;11;;
75342;SDS011;63936;51.006;13.764;2023-05-07T02:18:02;18;;;12;;
75342;SDS011;63936;51.006;13.764;2023-05-07T02:20:07;18;;;10;;
75342;SDS011;63936;51.006;13.764;2023-05-07T02:22:01;18;;;12;;
75342;SDS011;63936;51.006;13.764;2023-05-07T02:24:01;17;;;11;;
75342;SDS011;63936;51.006;13.764;2023-05-07T02:26:01;18;;;12;;
75342;SDS011;63936;51.006;13.764;2023-05-07T02:28:01;16;;;10;;
75342;SDS011;63936;51.006;13.764;2023-05-07T02:30:03;18;;;12;;
75342;SDS011;63936;51.006;13.764;2023-05-07T02:32:01;17;;;11;;
75342;SDS011;63936;51.006;13.764;2023-05-07T02:34:01;18;;;12;;
75342;SDS011;63936;51.006;13.764;2023-05-07T02:36:05;17;;;12;;
75342;SDS011;63936;51.006;13.764;2023-05-07T02:38:01;16;;;12;;
75342;SDS011;63936;51.006;13.764;2023-05-07T02:40:04;17;;;10;;
75342;SDS011;63936;51.006;13.764;2023-05-07T02:42:01;17;;;11;;
75342;SDS011;63936;51.006;13.764;2023-05-07T02:44:01;17;;;10;;
75342;SDS011;63936;51.006;13.764;2023-05-07T02:46:02;17;;;11;;
75342;SDS011;63936;51.006;13.764;2023-05-07T02:48:02;19;;;12;;
75342;SDS011;63936;51.006;13.764;2023-05-07T02:50:03;20;;;13;;
75342;SDS011;63936;51.006;13.764;2023-05-07T02:52:01;20;;;13;;
75342;SDS011;63936;51.006;13.764;2023-05-07T02:54:01;19;;;12;;
75342;SDS011;63936;51.006;13.764;2023-05-07T02:56:02;18;;;12;;
75342;SDS011;63936;51.006;13.764;2023-05-07T02:58:02;18;;;12;;
75342;SDS011;63936;51.006;13.764;2023-05-07T03:00:11;19;;;11;;
75342;SDS011;63936;51.006;13.764;2023-05-07T03:02:03;19;;;13;;
75342;SDS011;63936;51.006;13.764;2023-05-07T03:04:02;17;;;10;;
75342;SDS011;63936;51.006;13.764;2023-05-07T03:06:01;18;;;12;;
75342;SDS011;63936;51.006;13.764;2023-05-07T03:08:01;18;;;12;;
75342;SDS011;63936;51.006;13.764;2023-05-07T03:10:02;19;;;13;;
75342;SDS011;63936;51.006;13.764;2023-05-07T03:12:01;18;;;14;;
75342;SDS011;63936;51.006;13.764;2023-05-07T03:14:01;18;;;14;;
75342;SDS011;63936;51.006;13.764;2023-05-07T03:16:01;16;;;10;;
75342;SDS011;63936;51.006;13.764;2023-05-07T03:18:01;14;;;9;;
75342;SDS011;63936;51.006;13.764;2023-05-07T03:20:02;13;;;9;;
75342;SDS011;63936;51.006;13.764;2023-05-07T03:22:01;14;;;9;;
75342;SDS011;63936;51.006;13.764;2023-05-07T03:24:01;11;;;7;;
75342;SDS011;63936;51.006;13.764;2023-05-07T03:26:01;11;;;6;;
75342;SDS011;63936;51.006;13.764;2023-05-07T03:28:01;12;;;7;;
75342;SDS011;63936;51.006;13.764;2023-05-07T03:30:02;13;;;7;;
75342;SDS011;63936;51.006;13.764;2023-05-07T03:32:01;12;;;8;;
75342;SDS011;63936;51.006;13.764;2023-05-07T03:34:01;13;;;9;;
75342;SDS011;63936;51.006;13.764;2023-05-07T03:36:01;13;;;8;;
75342;SDS011;63936;51.006;13.764;2023-05-07T03:38:01;11;;;7;;
75342;SDS011;63936;51.006;13.764;2023-05-07T03:40:02;12;;;6;;
75342;SDS011;63936;51.006;13.764;2023-05-07T03:42:01;11;;;7;;
75342;SDS011;63936;51.006;13.764;2023-05-07T03:44:01;10;;;6;;
75342;SDS011;63936;51.006;13.764;2023-05-07T03:46:01;10;;;7;;
75342;SDS011;63936;51.006;13.764;2023-05-07T03:48:01;12;;;6;;
75342;SDS011;63936;51.006;13.764;2023-05-07T03:50:02;12;;;7;;
75342;SDS011;63936;51.006;13.764;2023-05-07T03:52:01;13;;;8;;
75342;SDS011;63936;51.006;13.764;2023-05-07T03:54:01;13;;;8;;
75342;SDS011;63936;51.006;13.764;2023-05-07T03:56:02;12;;;7;;
75342;SDS011;63936;51.006;13.764;2023-05-07T03:58:02;13;;;8;;
75342;SDS011;63936;51.006;13.764;2023-05-07T04:00:03;15;;;9;;
75342;SDS011;63936;51.006;13.764;2023-05-07T04:02:02;15;;;9;;
75342;SDS011;63936;51.006;13.764;2023-05-07T04:04:03;13;;;8;;
75342;SDS011;63936;51.006;13.764;2023-05-07T04:06:02;13;;;9;;
75342;SDS011;63936;51.006;13.764;2023-05-07T04:08:02;16;;;10;;
75342;SDS011;63936;51.006;13.764;2023-05-07T04:10:03;14;;;9;;
75342;SDS011;63936;51.006;13.764;2023-05-07T04:12:02;15;;;9;;
75342;SDS011;63936;51.006;13.764;2023-05-07T04:14:02;15;;;9;;
75342;SDS011;63936;51.006;13.764;2023-05-07T04:16:02;14;;;8;;
75342;SDS011;63936;51.006;13.764;2023-05-07T04:18:02;16;;;9;;
75342;SDS011;63936;51.006;13.764;2023-05-07T04:20:04;16;;;9;;
75342;SDS011;63936;51.006;13.764;2023-05-07T04:22:02;15;;;8;;
75342;SDS011;63936;51.006;13.764;2023-05-07T04:24:02;15;;;8;;
75342;SDS011;63936;51.006;13.764;2023-05-07T04:26:02;14;;;8;;
75342;SDS011;63936;51.006;13.764;2023-05-07T04:28:01;14;;;8;;
75342;SDS011;63936;51.006;13.764;2023-05-07T04:30:03;14;;;8;;
75342;SDS011;63936;51.006;13.764;2023-05-07T04:32:02;14;;;8;;
75342;SDS011;63936;51.006;13.764;2023-05-07T04:34:02;13;;;8;;
75342;SDS011;63936;51.006;13.764;2023-05-07T04:36:03;14;;;9;;
75342;SDS011;63936;51.006;13.764;2023-05-07T04:38:01;14;;;9;;
75342;SDS011;63936;51.006;13.764;2023-05-07T04:40:04;15;;;10;;
75342;SDS011;63936;51.006;13.764;2023-05-07T04:42:02;16;;;9;;
75342;SDS011;63936;51.006;13.764;2023-05-07T04:44:02;16;;;9;;
75342;SDS011;63936;51.006;13.764;2023-05-07T04:46:01;14;;;8;;
75342;SDS011;63936;51.006;13.764;2023-05-07T04:48:01;15;;;9;;
75342;SDS011;63936;51.006;13.764;2023-05-07T04:50:03;14;;;8;;
75342;SDS011;63936;51.006;13.764;2023-05-07T04:52:01;14;;;8;;
75342;SDS011;63936;51.006;13.764;2023-05-07T04:54:01;15;;;8;;
75342;SDS011;63936;51.006;13.764;2023-05-07T04:56:02;15;;;9;;
75342;SDS011;63936;51.006;13.764;2023-05-07T04:58:02;14;;;8;;
75342;SDS011;63936;51.006;13.764;2023-05-07T05:00:05;15;;;9;;
75342;SDS011;63936;51.006;13.764;2023-05-07T05:02:01;14;;;9;;
75342;SDS011;63936;51.006;13.764;2023-05-07T05:04:01;14;;;9;;
75342;SDS011;63936;51.006;13.764;2023-05-07T05:06:02;15;;;9;;
75342;SDS011;63936;51.006;13.764;2023-05-07T05:08:01;15;;;10;;
75342;SDS011;63936;51.006;13.764;2023-05-07T05:10:04;14;;;9;;
75342;SDS011;63936;51.006;13.764;2023-05-07T05:12:02;15;;;9;;
75342;SDS011;63936;51.006;13.764;2023-05-07T05:14:02;14;;;8;;
75342;SDS011;63936;51.006;13.764;2023-05-07T05:16:01;15;;;9;;
75342;SDS011;63936;51.006;13.764;2023-05-07T05:18:01;15;;;10;;
75342;SDS011;63936;51.006;13.764;2023-05-07T05:20:03;15;;;10;;
75342;SDS011;63936;51.006;13.764;2023-05-07T05:22:02;14;;;8;;
75342;SDS011;63936;51.006;13.764;2023-05-07T05:24:02;14;;;8;;
75342;SDS011;63936;51.006;13.764;2023-05-07T05:26:02;13;;;8;;
75342;SDS011;63936;51.006;13.764;2023-05-07T05:28:02;14;;;9;;
75342;SDS011;63936;51.006;13.764;2023-05-07T05:30:04;13;;;8;;
75342;SDS011;63936;51.006;13.764;2023-05-07T05:32:02;13;;;9;;
75342;SDS011;63936;51.006;13.764;2023-05-07T05:34:01;13;;;8;;
75342;SDS011;63936;51.006;13.764;2023-05-07T05:36:01;14;;;9;;
75342;SDS011;63936;51.006;13.764;2023-05-07T05:38:02;15;;;10;;
75342;SDS011;63936;51.006;13.764;2023-05-07T05:40:03;15;;;9;;
75342;SDS011;63936;51.006;13.764;2023-05-07T05:42:01;15;;;10;;
75342;SDS011;63936;51.006;13.764;2023-05-07T05:44:01;16;;;11;;
75342;SDS011;63936;51.006;13.764;2023-05-07T05:46:01;16;;;11;;
75342;SDS011;63936;51.006;13.764;2023-05-07T05:48:02;16;;;10;;
75342;SDS011;63936;51.006;13.764;2023-05-07T05:50:03;15;;;9;;
75342;SDS011;63936;51.006;13.764;2023-05-07T05:52:01;14;;;9;;
75342;SDS011;63936;51.006;13.764;2023-05-07T05:54:01;13;;;8;;
75342;SDS011;63936;51.006;13.764;2023-05-07T05:56:03;13;;;8;;
75342;SDS011;63936;51.006;13.764;2023-05-07T05:58:02;14;;;9;;
75342;SDS011;63936;51.006;13.764;2023-05-07T06:00:03;14;;;9;;
75342;SDS011;63936;51.006;13.764;2023-05-07T06:02:01;14;;;10;;
75342;SDS011;63936;51.006;13.764;2023-05-07T06:04:01;14;;;9;;
75342;SDS011;63936;51.006;13.764;2023-05-07T06:06:01;13;;;9;;
75342;SDS011;63936;51.006;13.764;2023-05-07T06:08:01;14;;;10;;
75342;SDS011;63936;51.006;13.764;2023-05-07T06:10:03;13;;;8;;
75342;SDS011;63936;51.006;13.764;2023-05-07T06:12:01;14;;;9;;
75342;SDS011;63936;51.006;13.764;2023-05-07T06:14:01;13;;;9;;
75342;SDS011;63936;51.006;13.764;2023-05-07T06:16:01;15;;;8;;
75342;SDS011;63936;51.006;13.764;2023-05-07T06:18:01;13;;;7;;
75342;SDS011;63936;51.006;13.764;2023-05-07T06:20:03;12;;;8;;
75342;SDS011;63936;51.006;13.764;2023-05-07T06:22:01;12;;;7;;
75342;SDS011;63936;51.006;13.764;2023-05-07T06:24:01;12;;;7;;
75342;SDS011;63936;51.006;13.764;2023-05-07T06:26:01;10;;;6;;
75342;SDS011;63936;51.006;13.764;2023-05-07T06:28:01;10;;;6;;
75342;SDS011;63936;51.006;13.764;2023-05-07T06:30:02;12;;;6;;
75342;SDS011;63936;51.006;13.764;2023-05-07T06:32:06;11;;;6;;
75342;SDS011;63936;51.006;13.764;2023-05-07T06:34:01;11;;;6;;
75342;SDS011;63936;51.006;13.764;2023-05-07T06:36:02;11;;;7;;
75342;SDS011;63936;51.006;13.764;2023-05-07T06:38:02;11;;;6;;
75342;SDS011;63936;51.006;13.764;2023-05-07T06:40:01;11;;;6;;
75342;SDS011;63936;51.006;13.764;2023-05-07T06:42:01;11;;;6;;
75342;SDS011;63936;51.006;13.764;2023-05-07T06:44:01;10;;;6;;
75342;SDS011;63936;51.006;13.764;2023-05-07T06:46:01;11;;;6;;
75342;SDS011;63936;51.006;13.764;2023-05-07T06:48:01;11;;;6;;
75342;SDS011;63936;51.006;13.764;2023-05-07T06:50:02;11;;;6;;
75342;SDS011;63936;51.006;13.764;2023-05-07T06:52:01;10;;;5;;
75342;SDS011;63936;51.006;13.764;2023-05-07T06:54:01;10;;;5;;
75342;SDS011;63936;51.006;13.764;2023-05-07T06:56:01;12;;;6;;
75342;SDS011;63936;51.006;13.764;2023-05-07T06:58:01;11;;;7;;
75342;SDS011;63936;51.006;13.764;2023-05-07T07:00:02;10;;;6;;
75342;SDS011;63936;51.006;13.764;2023-05-07T07:02:01;10;;;5;;
75342;SDS011;63936;51.006;13.764;2023-05-07T07:04:01;10;;;6;;
75342;SDS011;63936;51.006;13.764;2023-05-07T07:06:02;10;;;5;;
75342;SDS011;63936;51.006;13.764;2023-05-07T07:08:02;11;;;6;;
75342;SDS011;63936;51.006;13.764;2023-05-07T07:10:02;17;;;7;;
75342;SDS011;63936;51.006;13.764;2023-05-07T07:12:02;12;;;6;;
75342;SDS011;63936;51.006;13.764;2023-05-07T07:14:02;10;;;6;;
75342;SDS011;63936;51.006;13.764;2023-05-07T07:16:01;10;;;6;;
75342;SDS011;63936;51.006;13.764;2023-05-07T07:18:01;10;;;6;;
75342;SDS011;63936;51.006;13.764;2023-05-07T07:20:02;10;;;6;;
75342;SDS011;63936;51.006;13.764;2023-05-07T07:22:01;10;;;6;;
75342;SDS011;63936;51.006;13.764;2023-05-07T07:24:01;10;;;6;;
75342;SDS011;63936;51.006;13.764;2023-05-07T07:26:01;10;;;6;;
75342;SDS011;63936;51.006;13.764;2023-05-07T07:28:02;10;;;6;;
75342;SDS011;63936;51.006;13.764;2023-05-07T07:30:03;11;;;7;;
75342;SDS011;63936;51.006;13.764;2023-05-07T07:32:01;11;;;6;;
75342;SDS011;63936;51.006;13.764;2023-05-07T07:34:01;10;;;7;;
75342;SDS011;63936;51.006;13.764;2023-05-07T07:36:01;10;;;7;;
75342;SDS011;63936;51.006;13.764;2023-05-07T07:38:01;11;;;8;;
75342;SDS011;63936;51.006;13.764;2023-05-07T07:40:02;10;;;7;;
75342;SDS011;63936;51.006;13.764;2023-05-07T07:42:02;10;;;6;;
75342;SDS011;63936;51.006;13.764;2023-05-07T07:44:02;10;;;6;;
75342;SDS011;63936;51.006;13.764;2023-05-07T07:46:01;9;;;5;;
75342;SDS011;63936;51.006;13.764;2023-05-07T07:48:01;8;;;5;;
75342;SDS011;63936;51.006;13.764;2023-05-07T07:50:02;9;;;5;;
75342;SDS011;63936;51.006;13.764;2023-05-07T07:52:02;10;;;5;;
75342;SDS011;63936;51.006;13.764;2023-05-07T07:54:02;9;;;5;;
75342;SDS011;63936;51.006;13.764;2023-05-07T07:56:01;9;;;5;;
75342;SDS011;63936;51.006;13.764;2023-05-07T07:58:01;8;;;5;;
75342;SDS011;63936;51.006;13.764;2023-05-07T08:00:02;8;;;5;;
75342;SDS011;63936;51.006;13.764;2023-05-07T08:02:01;8;;;4;;
75342;SDS011;63936;51.006;13.764;2023-05-07T08:04:01;8;;;4;;
75342;SDS011;63936;51.006;13.764;2023-05-07T08:06:01;7;;;5;;
75342;SDS011;63936;51.006;13.764;2023-05-07T08:08:01;7;;;5;;
75342;SDS011;63936;51.006;13.764;2023-05-07T08:10:02;10;;;5;;
75342;SDS011;63936;51.006;13.764;2023-05-07T08:12:02;10;;;5;;
75342;SDS011;63936;51.006;13.764;2023-05-07T08:14:02;7;;;4;;
75342;SDS011;63936;51.006;13.764;2023-05-07T08:16:01;7;;;5;;
75342;SDS011;63936;51.006;13.764;2023-05-07T08:18:01;7;;;4;;
75342;SDS011;63936;51.006;13.764;2023-05-07T08:20:03;7;;;5;;
75342;SDS011;63936;51.006;13.764;2023-05-07T08:22:01;7;;;4;;
75342;SDS011;63936;51.006;13.764;2023-05-07T08:24:01;7;;;4;;
75342;SDS011;63936;51.006;13.764;2023-05-07T08:26:01;8;;;4;;
75342;SDS011;63936;51.006;13.764;2023-05-07T08:28:01;8;;;4;;
75342;SDS011;63936;51.006;13.764;2023-05-07T08:30:02;7;;;4;;
75342;SDS011;63936;51.006;13.764;2023-05-07T08:32:01;7;;;4;;
75342;SDS011;63936;51.006;13.764;2023-05-07T08:34:01;6;;;3;;
75342;SDS011;63936;51.006;13.764;2023-05-07T08:36:01;6;;;3;;
75342;SDS011;63936;51.006;13.764;2023-05-07T08:38:01;7;;;4;;
75342;SDS011;63936;51.006;13.764;2023-05-07T08:40:03;7;;;4;;
75342;SDS011;63936;51.006;13.764;2023-05-07T08:42:01;6;;;4;;
75342;SDS011;63936;51.006;13.764;2023-05-07T08:44:02;6;;;4;;
75342;SDS011;63936;51.006;13.764;2023-05-07T08:46:02;6;;;4;;
75342;SDS011;63936;51.006;13.764;2023-05-07T08:48:02;7;;;4;;
75342;SDS011;63936;51.006;13.764;2023-05-07T08:50:02;7;;;4;;
75342;SDS011;63936;51.006;13.764;2023-05-07T08:52:01;7;;;4;;
75342;SDS011;63936;51.006;13.764;2023-05-07T08:54:01;7;;;4;;
75342;SDS011;63936;51.006;13.764;2023-05-07T08:56:01;7;;;4;;
75342;SDS011;63936;51.006;13.764;2023-05-07T08:58:01;7;;;4;;
75342;SDS011;63936;51.006;13.764;2023-05-07T09:00:04;7;;;4;;
75342;SDS011;63936;51.006;13.764;2023-05-07T09:02:02;8;;;4;;
75342;SDS011;63936;51.006;13.764;2023-05-07T09:04:02;7;;;4;;
75342;SDS011;63936;51.006;13.764;2023-05-07T09:06:01;7;;;4;;
75342;SDS011;63936;51.006;13.764;2023-05-07T09:08:01;8;;;5;;
75342;SDS011;63936;51.006;13.764;2023-05-07T09:10:02;8;;;6;;
75342;SDS011;63936;51.006;13.764;2023-05-07T09:12:01;9;;;6;;
75342;SDS011;63936;51.006;13.764;2023-05-07T09:14:01;9;;;5;;
75342;SDS011;63936;51.006;13.764;2023-05-07T09:16:09;9;;;6;;
75342;SDS011;63936;51.006;13.764;2023-05-07T09:18:01;9;;;6;;
75342;SDS011;63936;51.006;13.764;2023-05-07T09:20:02;9;;;6;;
75342;SDS011;63936;51.006;13.764;2023-05-07T09:22:02;10;;;6;;
75342;SDS011;63936;51.006;13.764;2023-05-07T09:24:02;9;;;6;;
75342;SDS011;63936;51.006;13.764;2023-05-07T09:26:01;8;;;5;;
75342;SDS011;63936;51.006;13.764;2023-05-07T09:28:01;8;;;5;;
75342;SDS011;63936;51.006;13.764;2023-05-07T09:30:03;7;;;5;;
75342;SDS011;63936;51.006;13.764;2023-05-07T09:32:01;8;;;6;;
75342;SDS011;63936;51.006;13.764;2023-05-07T09:34:01;9;;;6;;
75342;SDS011;63936;51.006;13.764;2023-05-07T09:36:02;9;;;6;;
75342;SDS011;63936;51.006;13.764;2023-05-07T09:38:01;10;;;7;;
75342;SDS011;63936;51.006;13.764;2023-05-07T09:40:03;9;;;6;;
75342;SDS011;63936;51.006;13.764;2023-05-07T09:42:01;10;;;6;;
75342;SDS011;63936;51.006;13.764;2023-05-07T09:44:01;10;;;6;;
75342;SDS011;63936;51.006;13.764;2023-05-07T09:46:02;9;;;7;;
75342;SDS011;63936;51.006;13.764;2023-05-07T09:48:01;9;;;7;;
75342;SDS011;63936;51.006;13.764;2023-05-07T09:50:02;8;;;6;;
75342;SDS011;63936;51.006;13.764;2023-05-07T09:52:02;8;;;6;;
75342;SDS011;63936;51.006;13.764;2023-05-07T09:54:01;8;;;6;;
75342;SDS011;63936;51.006;13.764;2023-05-07T09:56:02;8;;;6;;
75342;SDS011;63936;51.006;13.764;2023-05-07T09:58:01;8;;;5;;
75342;SDS011;63936;51.006;13.764;2023-05-07T10:00:03;8;;;5;;
75342;SDS011;63936;51.006;13.764;2023-05-07T10:02:01;8;;;5;;
75342;SDS011;63936;51.006;13.764;2023-05-07T10:04:01;7;;;5;;
75342;SDS011;63936;51.006;13.764;2023-05-07T10:06:01;7;;;5;;
75342;SDS011;63936;51.006;13.764;2023-05-07T10:08:01;7;;;5;;
75342;SDS011;63936;51.006;13.764;2023-05-07T10:10:02;7;;;5;;
75342;SDS011;63936;51.006;13.764;2023-05-07T10:12:01;8;;;5;;
75342;SDS011;63936;51.006;13.764;2023-05-07T10:14:02;8;;;6;;
75342;SDS011;63936;51.006;13.764;2023-05-07T10:16:03;8;;;6;;
75342;SDS011;63936;51.006;13.764;2023-05-07T10:18:01;9;;;6;;
75342;SDS011;63936;51.006;13.764;2023-05-07T10:20:02;7;;;6;;
75342;SDS011;63936;51.006;13.764;2023-05-07T10:22:03;9;;;7;;
75342;SDS011;63936;51.006;13.764;2023-05-07T10:24:03;8;;;6;;
75342;SDS011;63936;51.006;13.764;2023-05-07T10:26:03;8;;;6;;
75342;SDS011;63936;51.006;13.764;2023-05-07T10:28:03;9;;;6;;
75342;SDS011;63936;51.006;13.764;2023-05-07T10:30:05;8;;;6;;
75342;SDS011;63936;51.006;13.764;2023-05-07T10:32:07;8;;;6;;
75342;SDS011;63936;51.006;13.764;2023-05-07T10:34:01;8;;;6;;
75342;SDS011;63936;51.006;13.764;2023-05-07T10:36:01;9;;;6;;
75342;SDS011;63936;51.006;13.764;2023-05-07T10:38:01;9;;;6;;
75342;SDS011;63936;51.006;13.764;2023-05-07T10:40:03;8;;;6;;
75342;SDS011;63936;51.006;13.764;2023-05-07T10:42:08;7;;;5;;
75342;SDS011;63936;51.006;13.764;2023-05-07T10:44:01;7;;;6;;
75342;SDS011;63936;51.006;13.764;2023-05-07T10:46:09;7;;;6;;
75342;SDS011;63936;51.006;13.764;2023-05-07T10:48:09;8;;;6;;
75342;SDS011;63936;51.006;13.764;2023-05-07T10:50:20;8;;;6;;
75342;SDS011;63936;51.006;13.764;2023-05-07T10:52:17;8;;;6;;
75342;SDS011;63936;51.006;13.764;2023-05-07T10:54:33;8;;;6;;
75342;SDS011;63936;51.006;13.764;2023-05-07T10:56:29;10;;;6;;
75342;SDS011;63936;51.006;13.764;2023-05-07T10:58:22;10;;;6;;
75342;SDS011;63936;51.006;13.764;2023-05-07T11:00:02;10;;;6;;
75342;SDS011;63936;51.006;13.764;2023-05-07T11:02:01;9;;;7;;
75342;SDS011;63936;51.006;13.764;2023-05-07T11:04:16;8;;;7;;
75342;SDS011;63936;51.006;13.764;2023-05-07T11:06:08;8;;;7;;
75342;SDS011;63936;51.006;13.764;2023-05-07T11:08:02;9;;;7;;
75342;SDS011;63936;51.006;13.764;2023-05-07T11:10:02;8;;;7;;
75342;SDS011;63936;51.006;13.764;2023-05-07T11:12:01;8;;;6;;
75342;SDS011;63936;51.006;13.764;2023-05-07T11:14:01;9;;;6;;
75342;SDS011;63936;51.006;13.764;2023-05-07T11:16:02;8;;;6;;
75342;SDS011;63936;51.006;13.764;2023-05-07T11:18:02;8;;;6;;
75342;SDS011;63936;51.006;13.764;2023-05-07T11:20:03;8;;;6;;
75342;SDS011;63936;51.006;13.764;2023-05-07T11:22:01;8;;;6;;
75342;SDS011;63936;51.006;13.764;2023-05-07T11:24:02;8;;;6;;
75342;SDS011;63936;51.006;13.764;2023-05-07T11:26:02;8;;;6;;
75342;SDS011;63936;51.006;13.764;2023-05-07T11:28:05;8;;;6;;
75342;SDS011;63936;51.006;13.764;2023-05-07T11:30:03;7;;;5;;
75342;SDS011;63936;51.006;13.764;2023-05-07T11:32:01;8;;;5;;
75342;SDS011;63936;51.006;13.764;2023-05-07T11:34:01;7;;;5;;
75342;SDS011;63936;51.006;13.764;2023-05-07T11:36:02;8;;;6;;
75342;SDS011;63936;51.006;13.764;2023-05-07T11:38:01;8;;;6;;
75342;SDS011;63936;51.006;13.764;2023-05-07T11:40:03;7;;;6;;
75342;SDS011;63936;51.006;13.764;2023-05-07T11:42:01;7;;;5;;
75342;SDS011;63936;51.006;13.764;2023-05-07T11:44:01;8;;;5;;
75342;SDS011;63936;51.006;13.764;2023-05-07T11:46:04;8;;;5;;
75342;SDS011;63936;51.006;13.764;2023-05-07T11:48:01;8;;;6;;
75342;SDS011;63936;51.006;13.764;2023-05-07T11:50:03;7;;;5;;
75342;SDS011;63936;51.006;13.764;2023-05-07T11:52:02;7;;;5;;
75342;SDS011;63936;51.006;13.764;2023-05-07T11:54:03;8;;;6;;
75342;SDS011;63936;51.006;13.764;2023-05-07T11:56:05;8;;;6;;
75342;SDS011;63936;51.006;13.764;2023-05-07T11:58:01;8;;;6;;
75342;SDS011;63936;51.006;13.764;2023-05-07T12:00:03;9;;;6;;
75342;SDS011;63936;51.006;13.764;2023-05-07T12:02:01;9;;;6;;
75342;SDS011;63936;51.006;13.764;2023-05-07T12:04:02;8;;;6;;
75342;SDS011;63936;51.006;13.764;2023-05-07T12:06:02;8;;;6;;
75342;SDS011;63936;51.006;13.764;2023-05-07T12:08:02;8;;;6;;
75342;SDS011;63936;51.006;13.764;2023-05-07T12:10:04;8;;;6;;
75342;SDS011;63936;51.006;13.764;2023-05-07T12:12:03;7;;;5;;
75342;SDS011;63936;51.006;13.764;2023-05-07T12:14:01;8;;;6;;
75342;SDS011;63936;51.006;13.764;2023-05-07T12:16:02;9;;;6;;
75342;SDS011;63936;51.006;13.764;2023-05-07T12:18:01;9;;;6;;
75342;SDS011;63936;51.006;13.764;2023-05-07T12:20:01;9;;;6;;
75342;SDS011;63936;51.006;13.764;2023-05-07T12:22:01;8;;;6;;
75342;SDS011;63936;51.006;13.764;2023-05-07T12:24:01;9;;;6;;
75342;SDS011;63936;51.006;13.764;2023-05-07T12:26:01;9;;;6;;
75342;SDS011;63936;51.006;13.764;2023-05-07T12:28:01;9;;;6;;
75342;SDS011;63936;51.006;13.764;2023-05-07T12:30:03;8;;;6;;
75342;SDS011;63936;51.006;13.764;2023-05-07T12:32:01;8;;;6;;
75342;SDS011;63936;51.006;13.764;2023-05-07T12:34:02;8;;;6;;
75342;SDS011;63936;51.006;13.764;2023-05-07T12:36:03;8;;;6;;
75342;SDS011;63936;51.006;13.764;2023-05-07T12:38:01;8;;;6;;
75342;SDS011;63936;51.006;13.764;2023-05-07T12:40:03;9;;;6;;
75342;SDS011;63936;51.006;13.764;2023-05-07T12:42:02;9;;;6;;
75342;SDS011;63936;51.006;13.764;2023-05-07T12:44:03;9;;;6;;
75342;SDS011;63936;51.006;13.764;2023-05-07T12:46:01;8;;;6;;
75342;SDS011;63936;51.006;13.764;2023-05-07T12:48:01;8;;;6;;
75342;SDS011;63936;51.006;13.764;2023-05-07T12:50:04;8;;;6;;